WetterOnline ( https://www.wetteronline.de )

Wetter aktuell Magdeburg

Aktuelles Wetter: Magdeburg (85m)

6-stündlich | Neueste Meldungen
Ortszeit Temperatur Wetter
Do, 09.02. 13:00 2.9° C leicht bewölkt
Do, 09.02. 7:00 -5.0° C wolkenlos
Do, 09.02. 1:00 -3.9° C wolkenlos
Mi, 08.02. 19:00 -1.8° C wolkenlos
Mi, 08.02. 13:00 -2.6° C bedeckt
Mi, 08.02. 7:00 -5.7° C bedeckt
Mi, 08.02. 1:00 -5.3° C bedeckt
Di, 07.02. 19:00 -3.8° C leicht bewölkt
Ortszeit Temperatur Wetter
Do, 09.02. 13:30 3.4° C wolkig
Do, 09.02. 13:20 3.4° C wolkig
Do, 09.02. 13:10 3.7° C bedeckt
Do, 09.02. 13:00 2.9° C leicht bewölkt
Do, 09.02. 12:50 2.9° C wolkig
Do, 09.02. 12:40 2.6° C bedeckt
Do, 09.02. 12:30 2.7° C wolkig
Do, 09.02. 12:00 1.9° C leicht bewölkt
Do, 09.02. 11:30 1.2° C fast wolkenlos
Do, 09.02. 11:00 0.2° C leicht bewölkt
Do, 09.02. 10:30 -0.1° C fast wolkenlos
Ortszeit Relative Feuchte Sichtweite
Do, 09.02. 13:00 57% 45 km
Do, 09.02. 7:00 83% 15 km
Do, 09.02. 1:00 84% 9 km
Mi, 08.02. 19:00 86% 8 km
Mi, 08.02. 13:00 91% 2.7 km
Mi, 08.02. 7:00 93% 2.5 km
Mi, 08.02. 1:00 93% 2.5 km
Di, 07.02. 19:00 93% 3.4 km
Ortszeit Relative Feuchte Sichtweite
Do, 09.02. 13:30 51% 35 km
Do, 09.02. 13:20 51% -
Do, 09.02. 13:10 52% -
Do, 09.02. 13:00 57% 45 km
Do, 09.02. 12:50 57% -
Do, 09.02. 12:40 58% -
Do, 09.02. 12:30 57% 27 km
Do, 09.02. 12:00 60% 30 km
Do, 09.02. 11:30 63% 27 km
Do, 09.02. 11:00 65% 28 km
Do, 09.02. 10:30 67% 28 km
Ortszeit Niederschlagsmenge Niederschlagsart
Do, 09.02. 13:00 0.0 l/m2 in 6 Std. -
Do, 09.02. 7:00 0.0 l/m2 in 12 Std. -
Do, 09.02. 1:00 0.0 l/m2 in 6 Std. -
Mi, 08.02. 19:00 0.1 l/m2 in 12 Std. Schnee
Mi, 08.02. 13:00 0.1 l/m2 in 6 Std. Schnee, Sprühregen
Mi, 08.02. 7:00 0.0 l/m2 in 12 Std. -
Mi, 08.02. 1:00 0.0 l/m2 in 6 Std. -
Di, 07.02. 19:00 0.1 l/m2 in 12 Std. Schnee
Ortszeit Niederschlagsmenge Niederschlagsart
Do, 09.02. 13:30 0.0 l/m2 in 30 Min -
Do, 09.02. 13:20 keine Meldung -
Do, 09.02. 13:10 keine Meldung -
Do, 09.02. 13:00 0.0 l/m2 in 1 Std. -
Do, 09.02. 12:50 keine Meldung -
Do, 09.02. 12:40 keine Meldung -
Do, 09.02. 12:30 0.0 l/m2 in 30 Min -
Do, 09.02. 12:00 0.0 l/m2 in 1 Std. -
Do, 09.02. 11:30 0.0 l/m2 in 30 Min -
Do, 09.02. 11:00 0.0 l/m2 in 1 Std. -
Do, 09.02. 10:30 0.0 l/m2 in 30 Min -
Ortszeit Stärke Spitze Richtung
km/h Bft. km/h Grad Sektor
Do, 09.02. 13:00 9 2 26 210° SW
Do, 09.02. 7:00 7 2 18 160° S
Do, 09.02. 1:00 7 2 26 160° S
Mi, 08.02. 19:00 7 2 18 130° SO
Mi, 08.02. 13:00 7 2 18 140° SO
Mi, 08.02. 7:00 6 1 19 140° SO
Mi, 08.02. 1:00 6 1 19 130° SO
Di, 07.02. 19:00 4 1 14 110° O
Ortszeit Stärke Spitze Richtung
km/h Bft. km/h Grad Sektor
Do, 09.02. 13:30 7 2 14 230° SW
Do, 09.02. 13:20 7 2 - 230° SW
Do, 09.02. 13:10 7 2 - 240° SW
Do, 09.02. 13:00 9 2 17 210° SW
Do, 09.02. 12:50 9 2 - 210° SW
Do, 09.02. 12:40 7 2 - 210° SW
Do, 09.02. 12:30 7 2 18 220° SW
Do, 09.02. 12:00 9 2 19 200° S
Do, 09.02. 11:30 11 2 18 180° S
Do, 09.02. 11:00 13 3 26 180° S
Do, 09.02. 10:30 13 3 26 180° S
Ortszeit Untergrenze Bedeckung Gattung
total tief tief mittel hoch
Do, 09.02. 13:00 8700 m 8/8 0/8 - - -
Do, 09.02. 7:00 - 0/8 0/8 - - -
Do, 09.02. 1:00 - 0/8 0/8 - - -
Mi, 08.02. 19:00 - 0/8 0/8 - - -
Mi, 08.02. 13:00 120 m 8/8 8/8 - - -
Mi, 08.02. 7:00 30 m 8/8 8/8 - - -
Mi, 08.02. 1:00 60 m 8/8 8/8 - - -
Di, 07.02. 19:00 8700 m 3/8 0/8 - - -
Ortszeit Bedeckungsgrad in Achtel und Wolkenuntergrenze
Do, 09.02. 13:30 8(8700m)
Do, 09.02. 13:20 8(8700m)
Do, 09.02. 13:10 8
Do, 09.02. 13:00 8(8700m)
Do, 09.02. 12:50 8(8700m)
Do, 09.02. 12:40 8
Do, 09.02. 12:30 7(9000m)
Do, 09.02. 12:00 7(9000m)
Do, 09.02. 11:30 2(9000m)
Do, 09.02. 11:00 3(8700m) 6(9000m) 6(10500m)
Do, 09.02. 10:30 2(10500m)
Ortszeit Luftdruck NN (hPa) Tendenz (hPa in 3 Std.)
Do, 09.02. 13:00 1032 - 0,6
Do, 09.02. 7:00 1033 - 0,8
Do, 09.02. 1:00 1036 - 1,3
Mi, 08.02. 19:00 1039 - 1,1
Mi, 08.02. 13:00 1042 - 0,9
Mi, 08.02. 7:00 1042 0,0
Mi, 08.02. 1:00 1043 - 0,1
Di, 07.02. 19:00 1042 - 0,2
Ortszeit Luftdruck NN (hPa) Tendenz (hPa in 3 Std.)
Do, 09.02. 13:30 1032 - 0,6
Do, 09.02. 13:20 1032 keine Meldung
Do, 09.02. 13:10 1032 keine Meldung
Do, 09.02. 13:00 1032 - 0,6
Do, 09.02. 12:50 1032 keine Meldung
Do, 09.02. 12:40 1033 keine Meldung
Do, 09.02. 12:30 1033 - 0,2
Do, 09.02. 12:00 1033 - 0,2
Do, 09.02. 11:30 1033 - 0,3
Do, 09.02. 11:00 1033 - 0,2
Do, 09.02. 10:30 1033 - 0,1
Ortszeit Schneehöhe (cm)
Do, 09.02. 13:00 0
Do, 09.02. 7:00 0
Do, 09.02. 1:00 0
Mi, 08.02. 19:00 0
Mi, 08.02. 13:00 0
Mi, 08.02. 7:00 0
Mi, 08.02. 1:00 0
Di, 07.02. 19:00 0
Ortszeit Schneehöhe (cm)
Do, 09.02. 13:30 0
Do, 09.02. 13:20 0
Do, 09.02. 13:10 0
Do, 09.02. 13:00 0
Do, 09.02. 12:50 0
Do, 09.02. 12:40 0
Do, 09.02. 12:30 0
Do, 09.02. 12:00 0
Do, 09.02. 11:30 0
Do, 09.02. 11:00 0
Do, 09.02. 10:30 0
Link zu dieser Seite / Seite empfehlen

Das Wetter in ...